sensor_id;sensor_type;location;lat;lon;timestamp;P1;durP1;ratioP1;P2;durP2;ratioP2
4700;SDS011;8724;51.272;6.554;2024-02-26T00:01:54;1.23;;;1.13;;
4700;SDS011;8724;51.272;6.554;2024-02-26T00:04:22;1.87;;;1.60;;
4700;SDS011;8724;51.272;6.554;2024-02-26T00:06:50;1.47;;;1.37;;
4700;SDS011;8724;51.272;6.554;2024-02-26T00:09:21;2.30;;;1.13;;
4700;SDS011;8724;51.272;6.554;2024-02-26T00:11:49;1.57;;;1.47;;
4700;SDS011;8724;51.272;6.554;2024-02-26T00:14:18;1.50;;;1.40;;
4700;SDS011;8724;51.272;6.554;2024-02-26T00:16:47;1.63;;;1.40;;
4700;SDS011;8724;51.272;6.554;2024-02-26T00:19:15;1.77;;;1.37;;
4700;SDS011;8724;51.272;6.554;2024-02-26T00:21:43;1.00;;;1.00;;
4700;SDS011;8724;51.272;6.554;2024-02-26T00:24:11;2.07;;;1.37;;
4700;SDS011;8724;51.272;6.554;2024-02-26T00:26:39;1.37;;;1.27;;
4700;SDS011;8724;51.272;6.554;2024-02-26T00:29:08;2.70;;;1.50;;
4700;SDS011;8724;51.272;6.554;2024-02-26T00:31:37;1.87;;;1.30;;
4700;SDS011;8724;51.272;6.554;2024-02-26T00:34:05;2.97;;;1.70;;
4700;SDS011;8724;51.272;6.554;2024-02-26T00:36:34;1.27;;;1.17;;
4700;SDS011;8724;51.272;6.554;2024-02-26T00:39:02;1.93;;;1.20;;
4700;SDS011;8724;51.272;6.554;2024-02-26T00:41:30;1.20;;;0.90;;
4700;SDS011;8724;51.272;6.554;2024-02-26T00:43:58;1.33;;;1.23;;
4700;SDS011;8724;51.272;6.554;2024-02-26T00:46:27;1.47;;;1.37;;
4700;SDS011;8724;51.272;6.554;2024-02-26T00:48:56;1.40;;;1.30;;
4700;SDS011;8724;51.272;6.554;2024-02-26T00:51:24;1.13;;;1.13;;
4700;SDS011;8724;51.272;6.554;2024-02-26T00:53:52;1.70;;;1.40;;
4700;SDS011;8724;51.272;6.554;2024-02-26T00:56:21;1.60;;;1.27;;
4700;SDS011;8724;51.272;6.554;2024-02-26T00:58:49;1.50;;;1.40;;
4700;SDS011;8724;51.272;6.554;2024-02-26T01:01:17;2.27;;;1.93;;
4700;SDS011;8724;51.272;6.554;2024-02-26T01:03:46;1.57;;;1.47;;
4700;SDS011;8724;51.272;6.554;2024-02-26T01:06:16;1.03;;;1.03;;
4700;SDS011;8724;51.272;6.554;2024-02-26T01:08:45;1.70;;;1.60;;
4700;SDS011;8724;51.272;6.554;2024-02-26T01:11:13;1.63;;;1.10;;
4700;SDS011;8724;51.272;6.554;2024-02-26T01:13:41;2.10;;;1.40;;
4700;SDS011;8724;51.272;6.554;2024-02-26T01:16:09;1.30;;;1.20;;
4700;SDS011;8724;51.272;6.554;2024-02-26T01:18:38;1.50;;;1.40;;
4700;SDS011;8724;51.272;6.554;2024-02-26T01:21:06;1.30;;;1.20;;
4700;SDS011;8724;51.272;6.554;2024-02-26T01:23:37;1.57;;;1.47;;
4700;SDS011;8724;51.272;6.554;2024-02-26T01:26:05;1.50;;;1.40;;
4700;SDS011;8724;51.272;6.554;2024-02-26T01:28:33;1.60;;;1.50;;
4700;SDS011;8724;51.272;6.554;2024-02-26T01:31:01;1.23;;;1.13;;
4700;SDS011;8724;51.272;6.554;2024-02-26T01:33:31;1.10;;;1.00;;
4700;SDS011;8724;51.272;6.554;2024-02-26T01:36:00;1.13;;;1.03;;
4700;SDS011;8724;51.272;6.554;2024-02-26T01:38:29;1.40;;;1.10;;
4700;SDS011;8724;51.272;6.554;2024-02-26T01:40:58;1.40;;;1.30;;
4700;SDS011;8724;51.272;6.554;2024-02-26T01:43:27;1.60;;;1.40;;
4700;SDS011;8724;51.272;6.554;2024-02-26T01:45:55;1.23;;;1.00;;
4700;SDS011;8724;51.272;6.554;2024-02-26T01:48:23;1.50;;;1.40;;
4700;SDS011;8724;51.272;6.554;2024-02-26T01:50:52;0.90;;;0.90;;
4700;SDS011;8724;51.272;6.554;2024-02-26T01:53:21;1.20;;;1.10;;
4700;SDS011;8724;51.272;6.554;2024-02-26T01:55:49;1.30;;;1.20;;
4700;SDS011;8724;51.272;6.554;2024-02-26T01:58:19;1.03;;;1.03;;
4700;SDS011;8724;51.272;6.554;2024-02-26T02:00:48;1.50;;;1.40;;
4700;SDS011;8724;51.272;6.554;2024-02-26T02:03:16;1.10;;;1.10;;
4700;SDS011;8724;51.272;6.554;2024-02-26T02:05:45;1.47;;;1.30;;
4700;SDS011;8724;51.272;6.554;2024-02-26T02:08:13;1.27;;;1.17;;
4700;SDS011;8724;51.272;6.554;2024-02-26T02:10:42;1.30;;;1.20;;
4700;SDS011;8724;51.272;6.554;2024-02-26T02:13:10;1.73;;;1.30;;
4700;SDS011;8724;51.272;6.554;2024-02-26T02:15:40;3.07;;;1.20;;
4700;SDS011;8724;51.272;6.554;2024-02-26T02:18:08;1.70;;;1.40;;
4700;SDS011;8724;51.272;6.554;2024-02-26T02:20:38;2.23;;;1.07;;
4700;SDS011;8724;51.272;6.554;2024-02-26T02:23:06;1.93;;;1.73;;
4700;SDS011;8724;51.272;6.554;2024-02-26T02:25:34;1.80;;;1.40;;
4700;SDS011;8724;51.272;6.554;2024-02-26T02:28:03;1.80;;;1.40;;
4700;SDS011;8724;51.272;6.554;2024-02-26T02:30:33;3.33;;;1.40;;
4700;SDS011;8724;51.272;6.554;2024-02-26T02:33:02;1.23;;;1.13;;
4700;SDS011;8724;51.272;6.554;2024-02-26T02:35:31;1.30;;;1.20;;
4700;SDS011;8724;51.272;6.554;2024-02-26T02:38:01;2.43;;;1.30;;
4700;SDS011;8724;51.272;6.554;2024-02-26T02:40:29;1.27;;;1.17;;
4700;SDS011;8724;51.272;6.554;2024-02-26T02:42:57;2.30;;;1.23;;
4700;SDS011;8724;51.272;6.554;2024-02-26T02:45:26;2.00;;;1.33;;
4700;SDS011;8724;51.272;6.554;2024-02-26T02:47:54;1.53;;;1.17;;
4700;SDS011;8724;51.272;6.554;2024-02-26T02:50:23;1.30;;;1.20;;
4700;SDS011;8724;51.272;6.554;2024-02-26T02:52:51;2.03;;;1.20;;
4700;SDS011;8724;51.272;6.554;2024-02-26T02:55:20;1.40;;;1.30;;
4700;SDS011;8724;51.272;6.554;2024-02-26T02:57:48;3.37;;;1.50;;
4700;SDS011;8724;51.272;6.554;2024-02-26T03:00:17;1.20;;;1.20;;
4700;SDS011;8724;51.272;6.554;2024-02-26T03:02:45;1.30;;;1.20;;
4700;SDS011;8724;51.272;6.554;2024-02-26T03:05:14;2.40;;;1.30;;
4700;SDS011;8724;51.272;6.554;2024-02-26T03:07:42;1.10;;;1.10;;
4700;SDS011;8724;51.272;6.554;2024-02-26T03:10:11;1.07;;;0.90;;
4700;SDS011;8724;51.272;6.554;2024-02-26T03:12:41;2.20;;;1.23;;
4700;SDS011;8724;51.272;6.554;2024-02-26T03:15:09;1.37;;;0.90;;
4700;SDS011;8724;51.272;6.554;2024-02-26T03:17:38;1.53;;;1.20;;
4700;SDS011;8724;51.272;6.554;2024-02-26T03:20:07;1.13;;;1.03;;
4700;SDS011;8724;51.272;6.554;2024-02-26T03:22:38;2.20;;;1.53;;
4700;SDS011;8724;51.272;6.554;2024-02-26T03:25:06;1.53;;;1.30;;
4700;SDS011;8724;51.272;6.554;2024-02-26T03:27:35;2.43;;;1.20;;
4700;SDS011;8724;51.272;6.554;2024-02-26T03:30:05;1.90;;;1.30;;
4700;SDS011;8724;51.272;6.554;2024-02-26T03:32:34;1.80;;;1.57;;
4700;SDS011;8724;51.272;6.554;2024-02-26T03:35:03;1.23;;;1.13;;
4700;SDS011;8724;51.272;6.554;2024-02-26T03:37:33;1.37;;;1.30;;
4700;SDS011;8724;51.272;6.554;2024-02-26T03:40:02;0.80;;;0.80;;
4700;SDS011;8724;51.272;6.554;2024-02-26T03:42:31;1.53;;;1.30;;
4700;SDS011;8724;51.272;6.554;2024-02-26T03:44:59;0.87;;;0.87;;
4700;SDS011;8724;51.272;6.554;2024-02-26T03:47:29;1.40;;;1.30;;
4700;SDS011;8724;51.272;6.554;2024-02-26T03:49:57;2.13;;;1.27;;
4700;SDS011;8724;51.272;6.554;2024-02-26T03:52:26;1.13;;;0.97;;
4700;SDS011;8724;51.272;6.554;2024-02-26T03:54:55;2.77;;;1.40;;
4700;SDS011;8724;51.272;6.554;2024-02-26T03:57:23;1.20;;;1.10;;
4700;SDS011;8724;51.272;6.554;2024-02-26T03:59:51;1.13;;;1.00;;
4700;SDS011;8724;51.272;6.554;2024-02-26T04:02:19;1.47;;;1.37;;
4700;SDS011;8724;51.272;6.554;2024-02-26T04:04:50;1.43;;;1.33;;
4700;SDS011;8724;51.272;6.554;2024-02-26T04:07:19;1.80;;;1.40;;
4700;SDS011;8724;51.272;6.554;2024-02-26T04:09:47;1.60;;;1.50;;
4700;SDS011;8724;51.272;6.554;2024-02-26T04:12:15;1.50;;;1.37;;
4700;SDS011;8724;51.272;6.554;2024-02-26T04:14:45;2.03;;;1.83;;
4700;SDS011;8724;51.272;6.554;2024-02-26T04:17:13;2.10;;;1.90;;
4700;SDS011;8724;51.272;6.554;2024-02-26T04:19:41;2.10;;;1.90;;
4700;SDS011;8724;51.272;6.554;2024-02-26T04:22:11;2.70;;;1.67;;
4700;SDS011;8724;51.272;6.554;2024-02-26T04:24:39;2.40;;;2.20;;
4700;SDS011;8724;51.272;6.554;2024-02-26T04:27:07;1.57;;;1.47;;
4700;SDS011;8724;51.272;6.554;2024-02-26T04:29:36;2.37;;;1.77;;
4700;SDS011;8724;51.272;6.554;2024-02-26T04:32:04;1.70;;;1.50;;
4700;SDS011;8724;51.272;6.554;2024-02-26T04:34:32;1.33;;;1.23;;
4700;SDS011;8724;51.272;6.554;2024-02-26T04:37:01;1.30;;;1.20;;
4700;SDS011;8724;51.272;6.554;2024-02-26T04:39:30;1.60;;;1.50;;
4700;SDS011;8724;51.272;6.554;2024-02-26T04:41:59;1.30;;;1.20;;
4700;SDS011;8724;51.272;6.554;2024-02-26T04:44:30;2.00;;;1.57;;
4700;SDS011;8724;51.272;6.554;2024-02-26T04:46:58;1.30;;;1.20;;
4700;SDS011;8724;51.272;6.554;2024-02-26T04:49:28;1.33;;;1.13;;
4700;SDS011;8724;51.272;6.554;2024-02-26T04:51:56;3.80;;;1.60;;
4700;SDS011;8724;51.272;6.554;2024-02-26T04:54:24;1.80;;;1.30;;
4700;SDS011;8724;51.272;6.554;2024-02-26T04:56:54;1.33;;;1.23;;
4700;SDS011;8724;51.272;6.554;2024-02-26T04:59:22;2.00;;;1.20;;
4700;SDS011;8724;51.272;6.554;2024-02-26T05:01:50;1.63;;;1.33;;
4700;SDS011;8724;51.272;6.554;2024-02-26T05:04:19;1.60;;;1.50;;
4700;SDS011;8724;51.272;6.554;2024-02-26T05:06:47;1.57;;;1.40;;
4700;SDS011;8724;51.272;6.554;2024-02-26T05:09:15;1.30;;;1.30;;
4700;SDS011;8724;51.272;6.554;2024-02-26T05:11:44;2.03;;;1.60;;
4700;SDS011;8724;51.272;6.554;2024-02-26T05:14:14;1.70;;;1.53;;
4700;SDS011;8724;51.272;6.554;2024-02-26T05:16:42;3.03;;;1.70;;
4700;SDS011;8724;51.272;6.554;2024-02-26T05:19:10;1.97;;;1.87;;
4700;SDS011;8724;51.272;6.554;2024-02-26T05:21:38;1.60;;;1.50;;
4700;SDS011;8724;51.272;6.554;2024-02-26T05:24:07;5.03;;;1.70;;
4700;SDS011;8724;51.272;6.554;2024-02-26T05:26:35;2.00;;;1.90;;
4700;SDS011;8724;51.272;6.554;2024-02-26T05:29:03;1.73;;;1.47;;
4700;SDS011;8724;51.272;6.554;2024-02-26T05:31:33;1.60;;;1.50;;
4700;SDS011;8724;51.272;6.554;2024-02-26T05:34:01;1.60;;;1.50;;
4700;SDS011;8724;51.272;6.554;2024-02-26T05:36:30;1.67;;;1.57;;
4700;SDS011;8724;51.272;6.554;2024-02-26T05:39:00;2.10;;;2.00;;
4700;SDS011;8724;51.272;6.554;2024-02-26T05:41:28;1.77;;;1.37;;
4700;SDS011;8724;51.272;6.554;2024-02-26T05:43:56;1.73;;;1.63;;
4700;SDS011;8724;51.272;6.554;2024-02-26T05:46:24;2.83;;;1.80;;
4700;SDS011;8724;51.272;6.554;2024-02-26T05:48:55;3.80;;;1.60;;
4700;SDS011;8724;51.272;6.554;2024-02-26T05:51:23;1.50;;;1.40;;
4700;SDS011;8724;51.272;6.554;2024-02-26T05:53:51;1.73;;;1.60;;
4700;SDS011;8724;51.272;6.554;2024-02-26T05:56:21;1.70;;;1.60;;
4700;SDS011;8724;51.272;6.554;2024-02-26T05:58:50;1.60;;;1.50;;
4700;SDS011;8724;51.272;6.554;2024-02-26T06:01:20;1.63;;;1.53;;
4700;SDS011;8724;51.272;6.554;2024-02-26T06:03:49;2.40;;;2.20;;
4700;SDS011;8724;51.272;6.554;2024-02-26T06:06:18;2.70;;;2.07;;
4700;SDS011;8724;51.272;6.554;2024-02-26T06:08:49;2.07;;;1.80;;
4700;SDS011;8724;51.272;6.554;2024-02-26T06:11:16;1.70;;;1.60;;
4700;SDS011;8724;51.272;6.554;2024-02-26T06:13:45;1.57;;;1.27;;
4700;SDS011;8724;51.272;6.554;2024-02-26T06:16:13;3.03;;;1.50;;
4700;SDS011;8724;51.272;6.554;2024-02-26T06:18:41;1.90;;;1.70;;
4700;SDS011;8724;51.272;6.554;2024-02-26T06:21:10;1.90;;;1.80;;
4700;SDS011;8724;51.272;6.554;2024-02-26T06:23:40;1.77;;;1.67;;
4700;SDS011;8724;51.272;6.554;2024-02-26T06:26:09;2.37;;;1.40;;
4700;SDS011;8724;51.272;6.554;2024-02-26T06:28:37;2.90;;;1.83;;
4700;SDS011;8724;51.272;6.554;2024-02-26T06:31:07;1.60;;;1.50;;
4700;SDS011;8724;51.272;6.554;2024-02-26T06:33:35;1.80;;;1.53;;
4700;SDS011;8724;51.272;6.554;2024-02-26T06:36:04;1.83;;;1.73;;
4700;SDS011;8724;51.272;6.554;2024-02-26T06:38:32;2.13;;;1.97;;
4700;SDS011;8724;51.272;6.554;2024-02-26T06:41:02;1.47;;;1.37;;
4700;SDS011;8724;51.272;6.554;2024-02-26T06:43:31;2.23;;;1.80;;
4700;SDS011;8724;51.272;6.554;2024-02-26T06:45:59;3.07;;;2.10;;
4700;SDS011;8724;51.272;6.554;2024-02-26T06:48:27;3.00;;;1.73;;
4700;SDS011;8724;51.272;6.554;2024-02-26T06:50:55;1.73;;;1.63;;
4700;SDS011;8724;51.272;6.554;2024-02-26T06:53:23;1.83;;;1.50;;
4700;SDS011;8724;51.272;6.554;2024-02-26T06:55:52;2.20;;;1.80;;
4700;SDS011;8724;51.272;6.554;2024-02-26T06:58:21;1.70;;;1.57;;
4700;SDS011;8724;51.272;6.554;2024-02-26T07:00:49;1.77;;;1.67;;
4700;SDS011;8724;51.272;6.554;2024-02-26T07:03:18;2.17;;;1.90;;
4700;SDS011;8724;51.272;6.554;2024-02-26T07:05:46;1.93;;;1.50;;
4700;SDS011;8724;51.272;6.554;2024-02-26T07:08:14;1.40;;;1.30;;
4700;SDS011;8724;51.272;6.554;2024-02-26T07:10:43;1.70;;;1.60;;
4700;SDS011;8724;51.272;6.554;2024-02-26T07:13:12;1.73;;;1.63;;
4700;SDS011;8724;51.272;6.554;2024-02-26T07:15:41;3.50;;;1.70;;
4700;SDS011;8724;51.272;6.554;2024-02-26T07:18:10;1.73;;;1.57;;
4700;SDS011;8724;51.272;6.554;2024-02-26T07:20:38;1.50;;;1.40;;
4700;SDS011;8724;51.272;6.554;2024-02-26T07:23:06;1.60;;;1.50;;
4700;SDS011;8724;51.272;6.554;2024-02-26T07:25:34;1.80;;;1.70;;
4700;SDS011;8724;51.272;6.554;2024-02-26T07:28:03;3.83;;;1.70;;
4700;SDS011;8724;51.272;6.554;2024-02-26T07:30:31;1.90;;;1.67;;
4700;SDS011;8724;51.272;6.554;2024-02-26T07:33:01;1.83;;;1.70;;
4700;SDS011;8724;51.272;6.554;2024-02-26T07:35:29;2.97;;;1.70;;
4700;SDS011;8724;51.272;6.554;2024-02-26T07:37:59;2.10;;;1.73;;
4700;SDS011;8724;51.272;6.554;2024-02-26T07:40:27;2.17;;;1.97;;
4700;SDS011;8724;51.272;6.554;2024-02-26T07:42:55;2.20;;;2.00;;
4700;SDS011;8724;51.272;6.554;2024-02-26T07:45:23;1.70;;;1.60;;
4700;SDS011;8724;51.272;6.554;2024-02-26T07:47:52;2.20;;;2.10;;
4700;SDS011;8724;51.272;6.554;2024-02-26T07:50:21;3.00;;;1.50;;
4700;SDS011;8724;51.272;6.554;2024-02-26T07:52:49;3.87;;;1.80;;
4700;SDS011;8724;51.272;6.554;2024-02-26T07:55:19;4.63;;;1.90;;
4700;SDS011;8724;51.272;6.554;2024-02-26T07:57:48;1.90;;;1.80;;
4700;SDS011;8724;51.272;6.554;2024-02-26T08:00:17;2.87;;;1.80;;
4700;SDS011;8724;51.272;6.554;2024-02-26T08:02:46;2.20;;;1.70;;
4700;SDS011;8724;51.272;6.554;2024-02-26T08:05:14;1.60;;;1.50;;
4700;SDS011;8724;51.272;6.554;2024-02-26T08:07:44;1.80;;;1.70;;
4700;SDS011;8724;51.272;6.554;2024-02-26T08:10:12;2.10;;;1.90;;
4700;SDS011;8724;51.272;6.554;2024-02-26T08:12:40;1.77;;;1.50;;
4700;SDS011;8724;51.272;6.554;2024-02-26T08:15:09;3.17;;;1.40;;
4700;SDS011;8724;51.272;6.554;2024-02-26T08:17:38;2.17;;;1.73;;
4700;SDS011;8724;51.272;6.554;2024-02-26T08:20:06;4.23;;;2.07;;
4700;SDS011;8724;51.272;6.554;2024-02-26T08:22:36;1.90;;;1.80;;
4700;SDS011;8724;51.272;6.554;2024-02-26T08:25:07;1.70;;;1.60;;
4700;SDS011;8724;51.272;6.554;2024-02-26T08:27:36;1.87;;;1.40;;
4700;SDS011;8724;51.272;6.554;2024-02-26T08:30:05;2.10;;;1.90;;
4700;SDS011;8724;51.272;6.554;2024-02-26T08:32:35;2.20;;;1.80;;
4700;SDS011;8724;51.272;6.554;2024-02-26T08:35:04;2.67;;;1.67;;
4700;SDS011;8724;51.272;6.554;2024-02-26T08:37:32;1.60;;;1.40;;
4700;SDS011;8724;51.272;6.554;2024-02-26T08:40:01;2.23;;;2.03;;
4700;SDS011;8724;51.272;6.554;2024-02-26T08:42:34;2.27;;;1.83;;
4700;SDS011;8724;51.272;6.554;2024-02-26T08:45:02;2.13;;;1.93;;
4700;SDS011;8724;51.272;6.554;2024-02-26T08:47:31;2.40;;;1.80;;
4700;SDS011;8724;51.272;6.554;2024-02-26T08:50:00;1.63;;;1.53;;
4700;SDS011;8724;51.272;6.554;2024-02-26T08:52:28;2.00;;;1.90;;
4700;SDS011;8724;51.272;6.554;2024-02-26T08:54:56;1.80;;;1.70;;
4700;SDS011;8724;51.272;6.554;2024-02-26T08:57:25;2.07;;;1.87;;
4700;SDS011;8724;51.272;6.554;2024-02-26T08:59:55;1.77;;;1.67;;
4700;SDS011;8724;51.272;6.554;2024-02-26T09:02:23;2.70;;;1.83;;
4700;SDS011;8724;51.272;6.554;2024-02-26T09:04:51;1.60;;;1.50;;
4700;SDS011;8724;51.272;6.554;2024-02-26T09:07:21;1.83;;;1.50;;
4700;SDS011;8724;51.272;6.554;2024-02-26T09:09:49;2.20;;;2.00;;
4700;SDS011;8724;51.272;6.554;2024-02-26T09:12:18;1.53;;;1.43;;
4700;SDS011;8724;51.272;6.554;2024-02-26T09:14:47;3.57;;;1.70;;
4700;SDS011;8724;51.272;6.554;2024-02-26T09:17:17;1.97;;;1.63;;
4700;SDS011;8724;51.272;6.554;2024-02-26T09:19:45;1.73;;;1.63;;
4700;SDS011;8724;51.272;6.554;2024-02-26T09:22:13;1.70;;;1.47;;
4700;SDS011;8724;51.272;6.554;2024-02-26T09:24:44;1.70;;;1.60;;
4700;SDS011;8724;51.272;6.554;2024-02-26T09:27:12;1.60;;;1.50;;
4700;SDS011;8724;51.272;6.554;2024-02-26T09:29:41;2.90;;;2.10;;
4700;SDS011;8724;51.272;6.554;2024-02-26T09:32:09;1.80;;;1.70;;
4700;SDS011;8724;51.272;6.554;2024-02-26T09:34:40;1.97;;;1.87;;
4700;SDS011;8724;51.272;6.554;2024-02-26T09:37:09;2.43;;;2.00;;
4700;SDS011;8724;51.272;6.554;2024-02-26T09:39:47;1.70;;;1.60;;
4700;SDS011;8724;51.272;6.554;2024-02-26T09:42:15;1.53;;;1.43;;
4700;SDS011;8724;51.272;6.554;2024-02-26T09:44:46;2.80;;;1.47;;
4700;SDS011;8724;51.272;6.554;2024-02-26T09:47:18;1.50;;;1.40;;
4700;SDS011;8724;51.272;6.554;2024-02-26T09:49:49;1.80;;;1.60;;
4700;SDS011;8724;51.272;6.554;2024-02-26T09:52:19;1.73;;;1.60;;
4700;SDS011;8724;51.272;6.554;2024-02-26T09:54:48;1.70;;;1.60;;
4700;SDS011;8724;51.272;6.554;2024-02-26T09:57:17;1.70;;;1.60;;
4700;SDS011;8724;51.272;6.554;2024-02-26T09:59:46;1.87;;;1.40;;
4700;SDS011;8724;51.272;6.554;2024-02-26T10:02:17;1.63;;;1.53;;
4700;SDS011;8724;51.272;6.554;2024-02-26T10:04:48;2.17;;;1.83;;
4700;SDS011;8724;51.272;6.554;2024-02-26T10:07:19;3.67;;;2.00;;
4700;SDS011;8724;51.272;6.554;2024-02-26T10:09:48;2.37;;;2.17;;
4700;SDS011;8724;51.272;6.554;2024-02-26T10:12:17;1.93;;;1.83;;
4700;SDS011;8724;51.272;6.554;2024-02-26T10:14:46;2.30;;;2.10;;
4700;SDS011;8724;51.272;6.554;2024-02-26T10:17:14;2.20;;;2.00;;
4700;SDS011;8724;51.272;6.554;2024-02-26T10:19:43;1.80;;;1.70;;
4700;SDS011;8724;51.272;6.554;2024-02-26T10:22:13;2.50;;;2.30;;
4700;SDS011;8724;51.272;6.554;2024-02-26T10:24:41;2.73;;;2.33;;
4700;SDS011;8724;51.272;6.554;2024-02-26T10:27:09;2.80;;;2.53;;
4700;SDS011;8724;51.272;6.554;2024-02-26T10:29:38;2.23;;;2.03;;
4700;SDS011;8724;51.272;6.554;2024-02-26T10:32:07;2.23;;;2.00;;
4700;SDS011;8724;51.272;6.554;2024-02-26T10:34:35;2.17;;;1.97;;
4700;SDS011;8724;51.272;6.554;2024-02-26T10:37:05;2.83;;;2.53;;
4700;SDS011;8724;51.272;6.554;2024-02-26T10:39:35;2.40;;;2.20;;
4700;SDS011;8724;51.272;6.554;2024-02-26T10:42:05;3.27;;;2.00;;
4700;SDS011;8724;51.272;6.554;2024-02-26T10:44:39;2.37;;;2.17;;
4700;SDS011;8724;51.272;6.554;2024-02-26T10:47:09;3.10;;;2.50;;
4700;SDS011;8724;51.272;6.554;2024-02-26T10:49:38;2.33;;;2.13;;
4700;SDS011;8724;51.272;6.554;2024-02-26T10:52:06;3.53;;;2.30;;
4700;SDS011;8724;51.272;6.554;2024-02-26T10:54:36;2.63;;;2.43;;
4700;SDS011;8724;51.272;6.554;2024-02-26T10:57:10;3.70;;;3.30;;
4700;SDS011;8724;51.272;6.554;2024-02-26T10:59:40;2.47;;;2.27;;
4700;SDS011;8724;51.272;6.554;2024-02-26T11:02:10;3.07;;;2.83;;
4700;SDS011;8724;51.272;6.554;2024-02-26T11:04:41;2.67;;;1.93;;
4700;SDS011;8724;51.272;6.554;2024-02-26T11:07:09;2.97;;;2.43;;
4700;SDS011;8724;51.272;6.554;2024-02-26T11:09:40;2.67;;;2.47;;
4700;SDS011;8724;51.272;6.554;2024-02-26T11:12:11;3.00;;;2.60;;
4700;SDS011;8724;51.272;6.554;2024-02-26T11:14:40;4.10;;;2.50;;
4700;SDS011;8724;51.272;6.554;2024-02-26T11:17:12;2.73;;;2.40;;
4700;SDS011;8724;51.272;6.554;2024-02-26T11:19:43;3.20;;;2.80;;
4700;SDS011;8724;51.272;6.554;2024-02-26T11:22:14;3.87;;;2.73;;
4700;SDS011;8724;51.272;6.554;2024-02-26T11:24:52;4.03;;;3.60;;
4700;SDS011;8724;51.272;6.554;2024-02-26T11:27:21;3.63;;;3.33;;
4700;SDS011;8724;51.272;6.554;2024-02-26T11:29:57;5.43;;;4.10;;
4700;SDS011;8724;51.272;6.554;2024-02-26T11:32:28;4.20;;;3.73;;
4700;SDS011;8724;51.272;6.554;2024-02-26T11:34:57;5.53;;;3.70;;
4700;SDS011;8724;51.272;6.554;2024-02-26T11:37:26;4.43;;;3.63;;
4700;SDS011;8724;51.272;6.554;2024-02-26T11:39:56;4.40;;;4.00;;
4700;SDS011;8724;51.272;6.554;2024-02-26T11:42:27;4.70;;;4.30;;
4700;SDS011;8724;51.272;6.554;2024-02-26T11:44:56;5.27;;;3.83;;
4700;SDS011;8724;51.272;6.554;2024-02-26T11:47:27;4.63;;;3.30;;
4700;SDS011;8724;51.272;6.554;2024-02-26T11:49:55;3.37;;;3.07;;
4700;SDS011;8724;51.272;6.554;2024-02-26T11:52:24;4.43;;;4.03;;
4700;SDS011;8724;51.272;6.554;2024-02-26T11:54:53;3.83;;;3.53;;
4700;SDS011;8724;51.272;6.554;2024-02-26T11:57:25;3.83;;;3.53;;
4700;SDS011;8724;51.272;6.554;2024-02-26T11:59:56;4.50;;;4.20;;
4700;SDS011;8724;51.272;6.554;2024-02-26T12:02:38;4.17;;;3.77;;
4700;SDS011;8724;51.272;6.554;2024-02-26T12:05:11;4.37;;;3.97;;
4700;SDS011;8724;51.272;6.554;2024-02-26T12:07:46;4.70;;;4.30;;
4700;SDS011;8724;51.272;6.554;2024-02-26T12:10:23;3.90;;;3.60;;
4700;SDS011;8724;51.272;6.554;2024-02-26T12:12:56;5.20;;;3.77;;
4700;SDS011;8724;51.272;6.554;2024-02-26T12:15:31;4.63;;;4.13;;
4700;SDS011;8724;51.272;6.554;2024-02-26T12:18:02;5.57;;;4.23;;
4700;SDS011;8724;51.272;6.554;2024-02-26T12:20:32;4.43;;;3.97;;
4700;SDS011;8724;51.272;6.554;2024-02-26T12:23:00;4.97;;;4.47;;
4700;SDS011;8724;51.272;6.554;2024-02-26T12:25:30;6.73;;;4.47;;
4700;SDS011;8724;51.272;6.554;2024-02-26T12:28:00;6.00;;;4.43;;
4700;SDS011;8724;51.272;6.554;2024-02-26T12:30:29;5.40;;;4.40;;
4700;SDS011;8724;51.272;6.554;2024-02-26T12:32:59;5.10;;;4.60;;
4700;SDS011;8724;51.272;6.554;2024-02-26T12:35:29;4.60;;;4.17;;
4700;SDS011;8724;51.272;6.554;2024-02-26T12:37:58;7.03;;;4.30;;
4700;SDS011;8724;51.272;6.554;2024-02-26T12:40:27;4.80;;;4.00;;
4700;SDS011;8724;51.272;6.554;2024-02-26T12:42:55;4.50;;;4.10;;
4700;SDS011;8724;51.272;6.554;2024-02-26T12:45:25;4.73;;;4.33;;
4700;SDS011;8724;51.272;6.554;2024-02-26T12:47:55;4.40;;;4.00;;
4700;SDS011;8724;51.272;6.554;2024-02-26T12:50:23;4.23;;;3.80;;
4700;SDS011;8724;51.272;6.554;2024-02-26T12:52:52;4.40;;;4.10;;
4700;SDS011;8724;51.272;6.554;2024-02-26T12:55:21;4.57;;;4.27;;
4700;SDS011;8724;51.272;6.554;2024-02-26T12:57:49;4.80;;;4.17;;
4700;SDS011;8724;51.272;6.554;2024-02-26T13:00:20;4.87;;;4.37;;
4700;SDS011;8724;51.272;6.554;2024-02-26T13:02:53;5.23;;;4.70;;
4700;SDS011;8724;51.272;6.554;2024-02-26T13:05:22;4.27;;;3.40;;
4700;SDS011;8724;51.272;6.554;2024-02-26T13:07:51;5.57;;;4.40;;
4700;SDS011;8724;51.272;6.554;2024-02-26T13:10:20;5.00;;;4.43;;
4700;SDS011;8724;51.272;6.554;2024-02-26T13:12:49;5.13;;;4.27;;
4700;SDS011;8724;51.272;6.554;2024-02-26T13:15:18;6.13;;;4.90;;
4700;SDS011;8724;51.272;6.554;2024-02-26T13:17:48;6.17;;;4.70;;
4700;SDS011;8724;51.272;6.554;2024-02-26T13:20:26;5.10;;;4.53;;
4700;SDS011;8724;51.272;6.554;2024-02-26T13:23:02;5.00;;;4.60;;
4700;SDS011;8724;51.272;6.554;2024-02-26T13:25:32;4.93;;;4.50;;
4700;SDS011;8724;51.272;6.554;2024-02-26T13:28:07;4.80;;;4.37;;
4700;SDS011;8724;51.272;6.554;2024-02-26T13:30:36;6.10;;;4.93;;
4700;SDS011;8724;51.272;6.554;2024-02-26T13:33:07;5.10;;;4.60;;
4700;SDS011;8724;51.272;6.554;2024-02-26T13:35:38;6.63;;;5.47;;
4700;SDS011;8724;51.272;6.554;2024-02-26T13:38:07;4.93;;;4.53;;
4700;SDS011;8724;51.272;6.554;2024-02-26T13:40:35;4.93;;;4.43;;
4700;SDS011;8724;51.272;6.554;2024-02-26T13:43:04;6.23;;;5.27;;
4700;SDS011;8724;51.272;6.554;2024-02-26T13:45:33;5.90;;;5.23;;
4700;SDS011;8724;51.272;6.554;2024-02-26T13:48:04;5.57;;;5.03;;
4700;SDS011;8724;51.272;6.554;2024-02-26T13:50:33;5.83;;;5.10;;
4700;SDS011;8724;51.272;6.554;2024-02-26T13:53:03;5.10;;;4.60;;
4700;SDS011;8724;51.272;6.554;2024-02-26T13:55:32;5.90;;;4.50;;
4700;SDS011;8724;51.272;6.554;2024-02-26T13:58:00;6.97;;;4.63;;
4700;SDS011;8724;51.272;6.554;2024-02-26T14:00:29;5.20;;;4.70;;
4700;SDS011;8724;51.272;6.554;2024-02-26T14:03:01;5.43;;;4.83;;
4700;SDS011;8724;51.272;6.554;2024-02-26T14:05:30;6.03;;;4.57;;
4700;SDS011;8724;51.272;6.554;2024-02-26T14:07:58;6.10;;;4.80;;
4700;SDS011;8724;51.272;6.554;2024-02-26T14:10:29;6.23;;;5.13;;
4700;SDS011;8724;51.272;6.554;2024-02-26T14:12:58;8.03;;;5.70;;
4700;SDS011;8724;51.272;6.554;2024-02-26T14:15:27;5.33;;;4.83;;
4700;SDS011;8724;51.272;6.554;2024-02-26T14:17:56;4.70;;;4.30;;
4700;SDS011;8724;51.272;6.554;2024-02-26T14:20:25;5.00;;;4.50;;
4700;SDS011;8724;51.272;6.554;2024-02-26T14:22:53;6.60;;;4.70;;
4700;SDS011;8724;51.272;6.554;2024-02-26T14:25:22;4.40;;;4.00;;
4700;SDS011;8724;51.272;6.554;2024-02-26T14:27:56;4.40;;;4.00;;
4700;SDS011;8724;51.272;6.554;2024-02-26T14:30:25;4.07;;;3.73;;
4700;SDS011;8724;51.272;6.554;2024-02-26T14:32:54;4.70;;;4.30;;
4700;SDS011;8724;51.272;6.554;2024-02-26T14:35:23;4.50;;;3.97;;
4700;SDS011;8724;51.272;6.554;2024-02-26T14:37:51;4.37;;;3.70;;
4700;SDS011;8724;51.272;6.554;2024-02-26T14:40:20;3.60;;;3.30;;
4700;SDS011;8724;51.272;6.554;2024-02-26T14:42:48;3.40;;;3.20;;
4700;SDS011;8724;51.272;6.554;2024-02-26T14:45:18;3.57;;;3.27;;
4700;SDS011;8724;51.272;6.554;2024-02-26T14:47:47;4.00;;;3.67;;
4700;SDS011;8724;51.272;6.554;2024-02-26T14:50:16;5.00;;;3.63;;
4700;SDS011;8724;51.272;6.554;2024-02-26T14:52:44;3.50;;;3.20;;
4700;SDS011;8724;51.272;6.554;2024-02-26T14:55:12;3.43;;;3.00;;
4700;SDS011;8724;51.272;6.554;2024-02-26T14:57:41;3.60;;;2.97;;
4700;SDS011;8724;51.272;6.554;2024-02-26T15:00:09;3.70;;;3.43;;
4700;SDS011;8724;51.272;6.554;2024-02-26T15:02:39;3.67;;;3.33;;
4700;SDS011;8724;51.272;6.554;2024-02-26T15:05:08;5.90;;;3.30;;
4700;SDS011;8724;51.272;6.554;2024-02-26T15:07:38;3.73;;;3.30;;
4700;SDS011;8724;51.272;6.554;2024-02-26T15:10:07;3.57;;;3.00;;
4700;SDS011;8724;51.272;6.554;2024-02-26T15:12:36;3.67;;;2.93;;
4700;SDS011;8724;51.272;6.554;2024-02-26T15:15:05;4.27;;;3.87;;
4700;SDS011;8724;51.272;6.554;2024-02-26T15:17:34;4.77;;;3.20;;
4700;SDS011;8724;51.272;6.554;2024-02-26T15:20:05;4.17;;;3.77;;
4700;SDS011;8724;51.272;6.554;2024-02-26T15:22:34;3.37;;;3.07;;
4700;SDS011;8724;51.272;6.554;2024-02-26T15:25:04;5.63;;;3.00;;
4700;SDS011;8724;51.272;6.554;2024-02-26T15:27:32;3.30;;;3.00;;